createdAt,value
2022-12-23T00:00:22.164Z,97454.34
2022-12-23T00:02:50.568Z,97454.16
2022-12-23T00:05:19.205Z,97462.72
2022-12-23T00:07:47.536Z,97459.28
2022-12-23T00:10:15.926Z,97468.25
2022-12-23T00:13:02.100Z,97463.53
2022-12-23T00:15:32.121Z,97467.28
2022-12-23T00:18:02.513Z,97455.78
2022-12-23T00:20:31.158Z,97463.28
2022-12-23T00:23:08.270Z,97469.75
2022-12-23T00:25:41.876Z,97452.91
2022-12-23T00:28:11.798Z,97446.22
2022-12-23T00:30:47.029Z,97442.63
2022-12-23T00:33:16.060Z,97444.03
2022-12-23T00:35:45.157Z,97413.06
2022-12-23T00:38:13.886Z,97444.09
2022-12-23T00:40:59.818Z,97448.56
2022-12-23T00:43:28.546Z,97448.34
2022-12-23T00:45:58.206Z,97443.94
2022-12-23T00:48:44.009Z,97450.47
2022-12-23T00:51:12.330Z,97439.69
2022-12-23T00:53:40.625Z,97448.75
2022-12-23T00:56:11.250Z,97451.63
2022-12-23T00:58:39.486Z,97453.66
2022-12-23T01:01:28.971Z,97463.31
2022-12-23T01:04:14.743Z,97463.63
2022-12-23T01:06:43.084Z,97453.81
2022-12-23T01:09:11.434Z,97468.31
2022-12-23T01:11:39.728Z,97468.44
2022-12-23T01:14:09.268Z,97477.22
2022-12-23T01:16:41.612Z,97459.03
2022-12-23T01:19:09.952Z,97472.69
2022-12-23T01:21:38.417Z,97458.94
2022-12-23T01:24:07.277Z,97463.72
2022-12-23T01:26:35.990Z,97484.44
2022-12-23T01:29:04.513Z,97497.84
2022-12-23T01:31:32.835Z,97490.22
2022-12-23T01:34:03.150Z,97487.34
2022-12-23T01:36:31.627Z,97495.63
2022-12-23T01:39:02.522Z,97470.19
2022-12-23T01:42:05.645Z,97494.09
2022-12-23T01:44:56.613Z,97483.47
2022-12-23T01:47:33.137Z,97478.78
2022-12-23T01:50:08.604Z,97480.56
2022-12-23T01:52:44.692Z,97474.13
2022-12-23T01:55:15.403Z,97485.56
2022-12-23T01:57:45.116Z,97488.09
2022-12-23T02:00:32.892Z,97490.88
2022-12-23T02:03:18.653Z,97497.09
2022-12-23T02:05:49.482Z,97490.66
2022-12-23T02:08:37.109Z,97498.22
2022-12-23T02:11:18.356Z,97504.09
2022-12-23T02:14:06.468Z,97506.03
2022-12-23T02:16:41.372Z,97511.75
2022-12-23T02:19:15.111Z,97524.09
2022-12-23T02:21:58.813Z,97531.16
2022-12-23T02:24:58.921Z,97542.50
2022-12-23T02:27:31.277Z,97540.91
2022-12-23T02:30:14.191Z,97547.97
2022-12-23T02:32:54.320Z,97545.88
2022-12-23T02:35:26.258Z,97546.44
2022-12-23T02:38:03.165Z,97546.47
2022-12-23T02:40:39.429Z,97537.25
2022-12-23T02:43:14.999Z,97544.59
2022-12-23T02:45:47.352Z,97551.41
2022-12-23T02:48:23.168Z,97552.31
2022-12-23T02:50:54.447Z,97555.56
2022-12-23T02:53:26.589Z,97549.09
2022-12-23T02:55:57.285Z,97539.44
2022-12-23T02:58:30.988Z,97565.78
2022-12-23T03:01:02.088Z,97565.94
2022-12-23T03:03:33.122Z,97563.25
2022-12-23T03:06:03.130Z,97570.88
2022-12-23T03:08:44.670Z,97569.78
2022-12-23T03:11:17.054Z,97573.75
2022-12-23T03:14:06.894Z,97584.41
2022-12-23T03:16:41.084Z,97592.34
2022-12-23T03:19:20.773Z,97595.22
2022-12-23T03:21:57.253Z,97590.31
2022-12-23T03:24:33.820Z,97571.50
2022-12-23T03:27:07.629Z,97596.94
2022-12-23T03:29:42.320Z,97593.53
2022-12-23T03:32:15.544Z,97591.19
2022-12-23T03:34:46.300Z,97594.91
2022-12-23T03:37:18.194Z,97601.13
2022-12-23T03:39:50.860Z,97605.00
2022-12-23T03:42:25.068Z,97609.09
2022-12-23T03:45:27.880Z,97616.88
2022-12-23T03:47:45.277Z,97618.78
2022-12-23T03:50:16.303Z,97624.50
2022-12-23T03:52:49.559Z,97621.66
2022-12-23T03:55:19.530Z,97630.50
2022-12-23T03:57:53.318Z,97638.28
2022-12-23T04:00:21.342Z,97642.16
2022-12-23T04:02:57.495Z,97648.38
2022-12-23T04:05:28.785Z,97644.03
2022-12-23T04:08:01.026Z,97640.50
2022-12-23T04:10:29.650Z,97637.78
2022-12-23T04:12:58.074Z,97649.19
2022-12-23T04:15:28.356Z,97652.94
2022-12-23T04:17:58.430Z,97640.50
2022-12-23T04:20:28.211Z,97644.28
2022-12-23T04:22:56.516Z,97648.06
2022-12-23T04:25:25.242Z,97642.66
2022-12-23T04:27:53.582Z,97648.03
2022-12-23T04:30:21.936Z,97657.78
2022-12-23T04:32:52.564Z,97647.47
2022-12-23T04:35:21.243Z,97657.34
2022-12-23T04:37:52.942Z,97662.50
2022-12-23T04:40:23.315Z,97666.59
2022-12-23T04:42:51.365Z,97667.16
2022-12-23T04:45:19.399Z,97682.97
2022-12-23T04:47:47.426Z,97680.34
2022-12-23T04:50:16.268Z,97663.81
2022-12-23T04:52:44.681Z,97675.72
2022-12-23T04:55:14.828Z,97683.34
2022-12-23T04:57:43.012Z,97692.34
2022-12-23T05:00:11.559Z,97690.59
2022-12-23T05:02:39.594Z,97686.13
2022-12-23T05:05:07.872Z,97678.75
2022-12-23T05:07:35.877Z,97674.53
2022-12-23T05:10:03.964Z,97675.03
2022-12-23T05:12:33.311Z,97664.97
2022-12-23T05:15:01.388Z,97685.78
2022-12-23T05:17:29.418Z,97684.59
2022-12-23T05:19:57.473Z,97681.84
2022-12-23T05:22:27.830Z,97685.53
2022-12-23T05:24:57.940Z,97688.25
2022-12-23T05:27:25.982Z,97683.78
2022-12-23T05:29:55.290Z,97689.78
2022-12-23T05:32:23.260Z,97688.13
2022-12-23T05:34:51.245Z,97688.31
2022-12-23T05:37:19.223Z,97681.50
2022-12-23T05:39:47.255Z,97693.72
2022-12-23T05:42:19.288Z,97699.47
2022-12-23T05:44:47.762Z,97702.50
2022-12-23T05:47:19.467Z,97707.63
2022-12-23T05:49:47.479Z,97710.84
2022-12-23T05:52:15.513Z,97699.22
2022-12-23T05:54:43.500Z,97701.94
2022-12-23T05:57:11.560Z,97703.00
2022-12-23T05:59:39.672Z,97707.34
2022-12-23T06:02:10.034Z,97711.03
2022-12-23T06:04:39.463Z,97703.66
2022-12-23T06:07:07.551Z,97706.34
2022-12-23T06:09:35.580Z,97703.97
2022-12-23T06:12:06.203Z,97709.38
2022-12-23T06:14:34.234Z,97711.91
2022-12-23T06:17:02.257Z,97712.34
2022-12-23T06:19:30.410Z,97726.69
2022-12-23T06:21:59.794Z,97719.81
2022-12-23T06:24:27.829Z,97724.88
2022-12-23T06:26:57.536Z,97726.59
2022-12-23T06:29:26.048Z,97725.13
2022-12-23T06:31:54.203Z,97720.84
2022-12-23T06:34:22.269Z,97719.25
2022-12-23T06:36:50.322Z,97715.38
2022-12-23T06:39:20.119Z,97712.59
2022-12-23T06:41:48.134Z,97717.66
2022-12-23T06:44:16.142Z,97713.31
2022-12-23T06:46:44.224Z,97707.34
2022-12-23T06:49:14.565Z,97705.13
2022-12-23T06:51:42.617Z,97710.53
2022-12-23T06:54:10.868Z,97710.88
2022-12-23T06:56:40.423Z,97719.72
2022-12-23T06:59:08.494Z,97708.13
2022-12-23T07:01:36.587Z,97730.34
2022-12-23T07:04:04.716Z,97725.06
2022-12-23T07:06:32.802Z,97738.09
2022-12-23T07:09:03.186Z,97732.66
2022-12-23T07:11:33.313Z,97739.91
2022-12-23T07:14:03.072Z,97743.31
2022-12-23T07:16:31.232Z,97744.09
2022-12-23T07:18:59.292Z,97748.22
2022-12-23T07:21:29.875Z,97754.81
2022-12-23T07:23:58.289Z,97757.97
2022-12-23T07:26:26.363Z,97759.09
2022-12-23T07:28:54.517Z,97772.28
2022-12-23T07:31:24.035Z,97768.91
2022-12-23T07:33:52.150Z,97777.34
2022-12-23T07:36:20.163Z,97764.88
2022-12-23T07:38:50.087Z,97759.91
2022-12-23T07:41:18.216Z,97759.91
2022-12-23T07:43:46.422Z,97763.03
2022-12-23T07:46:14.689Z,97762.00
2022-12-23T07:48:44.163Z,97754.31
2022-12-23T07:51:14.325Z,97756.63
2022-12-23T07:53:42.416Z,97760.94
2022-12-23T07:56:10.501Z,97765.97
2022-12-23T07:58:40.676Z,97768.53
2022-12-23T08:01:09.010Z,97770.16
2022-12-23T08:03:37.766Z,97765.59
2022-12-23T08:06:08.900Z,97763.75
2022-12-23T08:08:37.133Z,97772.09
2022-12-23T08:11:06.755Z,97766.22
2022-12-23T08:13:35.683Z,97764.31
2022-12-23T08:16:04.422Z,97773.88
2022-12-23T08:18:33.678Z,97769.75
2022-12-23T08:21:02.987Z,97767.56
2022-12-23T08:23:33.003Z,97763.28
2022-12-23T08:26:01.981Z,97762.28
2022-12-23T08:28:30.353Z,97751.69
2022-12-23T08:31:04.228Z,97746.56
2022-12-23T08:33:32.453Z,97752.19
2022-12-23T08:36:00.566Z,97759.00
2022-12-23T08:38:28.667Z,97734.47
2022-12-23T08:40:58.297Z,97731.53
2022-12-23T08:43:35.259Z,97743.91
2022-12-23T08:46:04.441Z,97740.22
2022-12-23T08:48:33.165Z,97742.50
2022-12-23T08:51:04.191Z,97747.91
2022-12-23T08:53:32.295Z,97759.13
2022-12-23T08:56:04.445Z,97754.22
2022-12-23T08:58:32.710Z,97755.00
2022-12-23T09:01:03.756Z,97755.53
2022-12-23T09:03:31.903Z,97772.41
2022-12-23T09:06:00.036Z,97778.38
2022-12-23T09:08:28.074Z,97772.91
2022-12-23T09:10:56.139Z,97775.59
2022-12-23T09:13:34.606Z,97756.47
2022-12-23T09:16:03.599Z,97775.81
2022-12-23T09:18:31.710Z,97786.03
2022-12-23T09:21:00.309Z,97786.31
2022-12-23T09:23:28.938Z,97777.13
2022-12-23T09:25:57.270Z,97781.19
2022-12-23T09:28:29.189Z,97776.56
2022-12-23T09:30:57.365Z,97768.31
2022-12-23T09:33:25.409Z,97748.88
2022-12-23T09:35:53.437Z,97755.31
2022-12-23T09:38:21.532Z,97749.66
2022-12-23T09:40:49.593Z,97756.09
2022-12-23T09:43:23.186Z,97762.94
2022-12-23T09:46:02.895Z,97764.19
2022-12-23T09:48:34.454Z,97756.66
2022-12-23T09:51:03.781Z,97745.81
2022-12-23T09:53:40.630Z,97717.44
2022-12-23T09:56:15.863Z,97732.72
2022-12-23T09:58:48.008Z,97731.44
2022-12-23T10:01:24.486Z,97740.69
2022-12-23T10:04:05.772Z,97728.13
2022-12-23T10:06:35.262Z,97736.34
2022-12-23T10:09:05.486Z,97726.31
2022-12-23T10:11:35.678Z,97727.59
2022-12-23T10:14:05.428Z,97736.56
2022-12-23T10:16:36.579Z,97730.44
2022-12-23T10:19:07.334Z,97736.22
2022-12-23T10:21:46.882Z,97728.72
2022-12-23T10:24:17.769Z,97721.22
2022-12-23T10:26:49.594Z,97723.03
2022-12-23T10:29:19.686Z,97725.38
2022-12-23T10:31:56.694Z,97720.72
2022-12-23T10:34:34.878Z,97721.25
2022-12-23T10:37:08.444Z,97711.06
2022-12-23T10:39:42.965Z,97711.31
2022-12-23T10:42:18.309Z,97702.09
2022-12-23T10:44:55.976Z,97702.38
2022-12-23T10:47:28.977Z,97683.31
2022-12-23T10:50:04.631Z,97689.91
2022-12-23T10:52:35.252Z,97680.50
2022-12-23T10:55:04.551Z,97669.09
2022-12-23T10:57:32.845Z,97660.34
2022-12-23T11:00:00.878Z,97656.53
2022-12-23T11:02:46.570Z,97665.50
2022-12-23T11:05:16.017Z,97665.25
2022-12-23T11:07:46.216Z,97647.53
2022-12-23T11:10:17.336Z,97650.28
2022-12-23T11:12:47.318Z,97651.69
2022-12-23T11:15:29.147Z,97658.84
2022-12-23T11:18:02.584Z,97633.03
2022-12-23T11:20:30.867Z,97661.06
2022-12-23T11:23:01.729Z,97661.56
2022-12-23T11:25:31.499Z,97666.31
2022-12-23T11:28:00.955Z,97660.63
2022-12-23T11:30:29.887Z,97663.63
2022-12-23T11:32:58.053Z,97659.53
2022-12-23T11:35:28.707Z,97659.06
2022-12-23T11:37:57.431Z,97657.66
2022-12-23T11:40:27.328Z,97649.91
2022-12-23T11:42:58.685Z,97649.31
2022-12-23T11:45:28.383Z,97642.09
2022-12-23T11:47:57.153Z,97648.38
2022-12-23T11:50:29.343Z,97634.13
2022-12-23T11:53:02.398Z,97639.47
2022-12-23T11:55:33.220Z,97628.41
2022-12-23T11:58:02.015Z,97623.28
2022-12-23T12:00:34.698Z,97618.94
2022-12-23T12:03:05.806Z,97608.25
2022-12-23T12:05:36.889Z,97611.56
2022-12-23T12:08:07.777Z,97598.81
2022-12-23T12:10:37.474Z,97599.19
2022-12-23T12:13:06.713Z,97588.22
2022-12-23T12:15:40.997Z,97573.97
2022-12-23T12:18:12.559Z,97560.25
2022-12-23T12:20:43.410Z,97553.66
2022-12-23T12:23:14.083Z,97543.91
2022-12-23T12:25:43.260Z,97545.91
2022-12-23T12:28:13.344Z,97545.97
2022-12-23T12:30:44.724Z,97546.78
2022-12-23T12:33:16.842Z,97542.53
2022-12-23T12:35:53.473Z,97533.16
2022-12-23T12:38:25.079Z,97527.13
2022-12-23T12:40:57.139Z,97523.81
2022-12-23T12:43:28.028Z,97521.91
2022-12-23T12:46:05.312Z,97523.31
2022-12-23T12:48:39.466Z,97508.13
2022-12-23T12:51:14.493Z,97503.22
2022-12-23T12:53:48.150Z,97507.84
2022-12-23T12:56:19.728Z,97502.25
2022-12-23T12:58:50.312Z,97499.44
2022-12-23T13:01:26.742Z,97498.03
2022-12-23T13:04:13.576Z,97490.03
2022-12-23T13:06:49.295Z,97502.25
2022-12-23T13:09:23.567Z,97509.22
2022-12-23T13:11:56.090Z,97512.44
2022-12-23T13:14:33.966Z,97520.84
2022-12-23T13:17:07.326Z,97521.81
2022-12-23T13:19:39.406Z,97517.69
2022-12-23T13:22:09.782Z,97517.22
2022-12-23T13:24:48.137Z,97508.91
2022-12-23T13:27:19.475Z,97506.81
2022-12-23T13:30:12.055Z,97505.44
2022-12-23T13:32:48.283Z,97503.66
2022-12-23T13:35:23.900Z,97504.50
2022-12-23T13:37:59.533Z,97496.41
2022-12-23T13:40:36.034Z,97491.44
2022-12-23T13:43:11.387Z,97482.69
2022-12-23T13:45:40.827Z,97475.84
2022-12-23T13:48:22.704Z,97481.13
2022-12-23T13:50:54.453Z,97479.19
2022-12-23T13:53:31.913Z,97480.16
2022-12-23T13:56:06.570Z,97472.53
2022-12-23T13:58:35.149Z,97471.75
2022-12-23T14:01:18.479Z,97461.81
2022-12-23T14:03:48.824Z,97458.47
2022-12-23T14:06:22.494Z,97468.69
2022-12-23T14:08:52.453Z,97463.63
2022-12-23T14:11:23.341Z,97461.13
2022-12-23T14:13:55.169Z,97477.38
2022-12-23T14:16:36.198Z,97477.94
2022-12-23T14:19:23.940Z,97481.16
2022-12-23T14:21:58.373Z,97475.72
2022-12-23T14:24:53.821Z,97469.78
2022-12-23T14:27:33.745Z,97468.44
2022-12-23T14:30:08.257Z,97473.19
2022-12-23T14:32:42.085Z,97482.97
2022-12-23T14:35:22.219Z,97479.78
2022-12-23T14:38:05.826Z,97474.09
2022-12-23T14:40:52.505Z,97473.88
2022-12-23T14:43:47.663Z,97464.66
2022-12-23T14:46:44.087Z,97466.56
2022-12-23T14:49:38.774Z,97475.50
2022-12-23T14:53:00.482Z,97468.19
2022-12-23T14:55:48.043Z,97476.94
2022-12-23T14:59:05.435Z,97483.66
2022-12-23T15:01:38.518Z,97479.84
2022-12-23T15:04:15.908Z,97491.50
2022-12-23T15:06:46.612Z,97469.81
2022-12-23T15:09:24.645Z,97468.22
2022-12-23T15:11:54.616Z,97471.53
2022-12-23T15:14:32.537Z,97477.47
2022-12-23T15:17:01.152Z,97461.22
2022-12-23T15:19:29.608Z,97490.56
2022-12-23T15:22:19.922Z,97478.63
2022-12-23T15:24:52.296Z,97462.44
2022-12-23T15:27:30.257Z,97462.19
2022-12-23T15:30:01.506Z,97454.88
2022-12-23T15:32:30.574Z,97453.81
2022-12-23T15:35:04.965Z,97432.66
2022-12-23T15:37:34.446Z,97438.38
2022-12-23T15:40:12.089Z,97424.53
2022-12-23T15:42:47.406Z,97428.03
2022-12-23T15:45:28.058Z,97431.03
2022-12-23T15:47:56.086Z,97416.34
2022-12-23T15:50:24.090Z,97414.72
2022-12-23T15:52:55.087Z,97409.25
2022-12-23T15:55:24.532Z,97421.25
2022-12-23T15:57:53.110Z,97417.41
2022-12-23T16:00:23.854Z,97416.31
2022-12-23T16:03:02.377Z,97413.06
2022-12-23T16:05:32.552Z,97417.69
2022-12-23T16:08:28.575Z,97423.41
2022-12-23T16:11:00.109Z,97423.13
2022-12-23T16:13:28.299Z,97421.78
2022-12-23T16:16:20.523Z,97429.66
2022-12-23T16:18:49.907Z,97443.78
2022-12-23T16:21:17.935Z,97437.53
2022-12-23T16:23:49.527Z,97446.22
2022-12-23T16:26:17.568Z,97446.75
2022-12-23T16:28:46.655Z,97455.47
2022-12-23T16:31:16.087Z,97465.75
2022-12-23T16:33:45.064Z,97463.34
2022-12-23T16:36:18.397Z,97459.25
2022-12-23T16:38:50.729Z,97461.16
2022-12-23T16:41:19.558Z,97464.97
2022-12-23T16:43:51.991Z,97466.03
2022-12-23T16:46:21.618Z,97465.50
2022-12-23T16:48:50.592Z,97466.03
2022-12-23T16:51:20.758Z,97461.41
2022-12-23T16:53:48.922Z,97459.00
2022-12-23T16:56:18.515Z,97453.84
2022-12-23T16:58:47.029Z,97449.50
2022-12-23T17:01:15.387Z,97452.19
2022-12-23T17:03:43.558Z,97456.81
2022-12-23T17:06:13.742Z,97461.97
2022-12-23T17:08:43.562Z,97467.13
2022-12-23T17:11:14.855Z,97465.75
2022-12-23T17:13:42.924Z,97476.88
2022-12-23T17:16:14.936Z,97489.63
2022-12-23T17:18:43.110Z,97484.47
2022-12-23T17:21:15.879Z,97496.66
2022-12-23T17:23:47.919Z,97526.66
2022-12-23T17:26:16.494Z,97534.81
2022-12-23T17:28:45.571Z,97537.75
2022-12-23T17:31:22.401Z,97552.91
2022-12-23T17:33:55.018Z,97550.66
2022-12-23T17:36:23.471Z,97542.56
2022-12-23T17:38:53.204Z,97548.88
2022-12-23T17:41:28.124Z,97573.59
2022-12-23T17:43:57.079Z,97584.44
2022-12-23T17:46:26.235Z,97603.66
2022-12-23T17:48:54.589Z,97595.50
2022-12-23T17:51:24.233Z,97663.25
2022-12-23T17:53:58.017Z,97618.53
2022-12-23T17:56:29.331Z,97572.47
2022-12-23T17:58:57.774Z,97570.59
2022-12-23T18:01:28.196Z,97601.41
2022-12-23T18:03:58.257Z,97596.88
2022-12-23T18:06:28.065Z,97592.38
2022-12-23T18:08:57.848Z,97590.44
2022-12-23T18:11:33.412Z,97587.59
2022-12-23T18:14:02.327Z,97603.50
2022-12-23T18:16:31.092Z,97583.97
2022-12-23T18:18:59.475Z,97599.72
2022-12-23T18:21:29.935Z,97593.25
2022-12-23T18:24:00.864Z,97572.53
2022-12-23T18:26:31.615Z,97594.97
2022-12-23T18:29:00.134Z,97593.25
2022-12-23T18:31:28.523Z,97590.63
2022-12-23T18:33:57.315Z,97592.72
2022-12-23T18:36:27.816Z,97584.69
2022-12-23T18:39:00.136Z,97581.72
2022-12-23T18:41:28.557Z,97597.63
2022-12-23T18:43:56.796Z,97585.75
2022-12-23T18:46:25.126Z,97587.56
2022-12-23T18:48:53.864Z,97571.63
2022-12-23T18:51:22.489Z,97573.81
2022-12-23T18:53:50.703Z,97571.88
2022-12-23T18:56:21.195Z,97584.28
2022-12-23T18:58:49.499Z,97590.53
2022-12-23T19:01:18.714Z,97594.03
2022-12-23T19:03:47.288Z,97594.28
2022-12-23T19:06:15.940Z,97591.88
2022-12-23T19:08:44.516Z,97602.09
2022-12-23T19:11:13.068Z,97596.47
2022-12-23T19:13:42.514Z,97596.22
2022-12-23T19:16:14.257Z,97595.94
2022-12-23T19:18:42.471Z,97604.91
2022-12-23T19:21:10.533Z,97612.44
2022-12-23T19:23:38.566Z,97621.59
2022-12-23T19:26:06.824Z,97640.25
2022-12-23T19:28:34.947Z,97631.63
2022-12-23T19:31:09.211Z,97638.13
2022-12-23T19:33:37.568Z,97654.31
2022-12-23T19:36:09.027Z,97649.78
2022-12-23T19:38:37.142Z,97643.28
2022-12-23T19:41:06.539Z,97640.22
2022-12-23T19:43:34.872Z,97639.69
2022-12-23T19:46:04.023Z,97638.69
2022-12-23T19:48:33.725Z,97646.16
2022-12-23T19:51:02.964Z,97633.47
2022-12-23T19:53:32.057Z,97646.19
2022-12-23T19:56:00.904Z,97657.56
2022-12-23T19:58:29.448Z,97644.13
2022-12-23T20:01:06.158Z,97647.28
2022-12-23T20:03:35.972Z,97644.06
2022-12-23T20:06:05.303Z,97643.00
2022-12-23T20:08:33.583Z,97654.72
2022-12-23T20:11:05.469Z,97659.03
2022-12-23T20:13:33.784Z,97666.38
2022-12-23T20:16:01.993Z,97670.53
2022-12-23T20:18:30.191Z,97645.56
2022-12-23T20:21:00.921Z,97642.25
2022-12-23T20:23:29.478Z,97640.56
2022-12-23T20:25:58.286Z,97650.03
2022-12-23T20:28:26.682Z,97658.00
2022-12-23T20:31:07.349Z,97673.09
2022-12-23T20:33:35.993Z,97689.88
2022-12-23T20:36:07.368Z,97705.63
2022-12-23T20:38:36.799Z,97715.91
2022-12-23T20:41:07.713Z,97722.41
2022-12-23T20:43:36.400Z,97713.88
2022-12-23T20:46:06.290Z,97733.41
2022-12-23T20:48:34.954Z,97720.22
2022-12-23T20:51:07.352Z,97726.53
2022-12-23T20:53:36.415Z,97711.63
2022-12-23T20:56:05.932Z,97717.78
2022-12-23T20:58:51.583Z,97722.13
2022-12-23T21:01:19.838Z,97725.66
2022-12-23T21:03:48.107Z,97732.25
2022-12-23T21:06:17.800Z,97744.84
2022-12-23T21:08:46.171Z,97737.38
2022-12-23T21:11:14.535Z,97705.28
2022-12-23T21:13:48.548Z,97720.41
2022-12-23T21:16:18.181Z,97729.06
2022-12-23T21:18:48.738Z,97736.41
2022-12-23T21:21:18.547Z,97733.25
2022-12-23T21:23:46.884Z,97736.38
2022-12-23T21:26:17.755Z,97725.19
2022-12-23T21:28:47.843Z,97716.50
2022-12-23T21:31:20.981Z,97711.91
2022-12-23T21:33:52.618Z,97706.22
2022-12-23T21:36:24.717Z,97735.06
2022-12-23T21:38:53.914Z,97737.50
2022-12-23T21:41:23.963Z,97750.56
2022-12-23T21:43:53.035Z,97746.28
2022-12-23T21:46:23.515Z,97766.16
2022-12-23T21:48:52.480Z,97757.00
2022-12-23T21:51:23.843Z,97774.16
2022-12-23T21:53:53.975Z,97773.84
2022-12-23T21:56:24.938Z,97764.41
2022-12-23T21:58:57.356Z,97772.84
2022-12-23T22:02:37.295Z,97775.34
2022-12-23T22:05:06.683Z,97775.09
2022-12-23T22:07:34.946Z,97758.97
2022-12-23T22:10:03.250Z,97773.44
2022-12-23T22:12:31.595Z,97761.28
2022-12-23T22:15:06.439Z,97764.25
2022-12-23T22:17:41.267Z,97765.44
2022-12-23T22:20:11.216Z,97759.09
2022-12-23T22:22:39.620Z,97753.31
2022-12-23T22:25:08.458Z,97761.63
2022-12-23T22:27:36.692Z,97757.59
2022-12-23T22:30:08.538Z,97754.75
2022-12-23T22:32:42.227Z,97764.28
2022-12-23T22:35:12.477Z,97766.66
2022-12-23T22:37:40.771Z,97776.44
2022-12-23T22:40:10.478Z,97786.88
2022-12-23T22:42:38.575Z,97766.41
2022-12-23T22:45:09.204Z,97774.47
2022-12-23T22:47:37.696Z,97780.63
2022-12-23T22:50:07.738Z,97790.25
2022-12-23T22:52:37.838Z,97793.94
2022-12-23T22:55:09.017Z,97802.56
2022-12-23T22:57:37.450Z,97812.34
2022-12-23T23:00:12.311Z,97803.13
2022-12-23T23:02:41.227Z,97804.19
2022-12-23T23:05:13.025Z,97807.47
2022-12-23T23:07:43.058Z,97805.03
2022-12-23T23:10:13.336Z,97801.72
2022-12-23T23:12:41.447Z,97793.13
2022-12-23T23:15:09.891Z,97815.13
2022-12-23T23:17:37.893Z,97803.81
2022-12-23T23:20:07.234Z,97802.31
2022-12-23T23:22:35.561Z,97801.88
2022-12-23T23:25:05.401Z,97797.25
2022-12-23T23:27:33.857Z,97800.44
2022-12-23T23:30:02.214Z,97801.88
2022-12-23T23:32:30.651Z,97799.56
2022-12-23T23:35:08.722Z,97802.41
2022-12-23T23:37:39.007Z,97818.56
2022-12-23T23:40:12.763Z,97828.56
2022-12-23T23:42:41.115Z,97823.50
2022-12-23T23:45:12.194Z,97811.91
2022-12-23T23:47:40.585Z,97814.16
2022-12-23T23:50:09.717Z,97805.44
2022-12-23T23:52:38.171Z,97827.34
2022-12-23T23:55:07.461Z,97836.03
2022-12-23T23:57:36.922Z,97826.34
